Aérodrome :
LOGIN :

S'inscrire | Disclaimer

   EN    FR    IT 

 










Légende :    VFR   VFR Marginal   IFR   IFR Intensif   IFR Très Intensif
Visi : 
Plafond : 
>= 8 km
>= 3000ft
5 à 8 km
1000 à 3000 ft
1500m à 5 km
500 à 1000 ft
800 à 1500m
200 à 500 ft
< 800m
< 200 ft
Symboles :   Orages  Brouillard  Fortes neiges  Fortes précipitations  Vent > 20 kt
SIGMETs :   Divers  Orages  Givrage  Turbulence  Onde Orograph.  Cendres Volcan.







- Altitude de l'aérodrome : 3 ft
- Code IATA : DHR


EHKD - Den Helder De Kooy

DERNIER METAR :
  • 190149Z AUTO VRB02KT 6000 BR OVC075 13/13 Q1012 WHT

METARs EXPIRÉS :
  • 190145Z AUTO 25002KT 3400 R21/P3000N BR BKN075 OVC280 13/13 Q1012 YLO
  • 190125Z AUTO 26003KT 9999 FEW290 14/13 Q1011 BLU
  • 190055Z AUTO 29002KT 9999 FEW076 OVC230 14/14 Q1011 BLU
  • 190025Z AUTO 29004KT 9999 OVC230 15/14 Q1011 BLU
  • 182355Z AUTO 28003KT 9999 OVC240 15/14 Q1011 BLU
  • 182325Z AUTO 29005KT 9999 BKN240 OVC310 15/14 Q1011 BLU

TAF COR TAF EHKD
Valide du 19 à 01h jusqu'au 19 à 13h UTC


190044Z 1901/1913 27005KT CAVOK
PROB30 1902/1905 VRB02KT 1500 BR BCFG
BECMG 1907/1910 22007KT 9999 SCT020
Pas de NOTAMs connus pour ce terrain.



MET'MAP, la Météo Aéronautique d'un coup d'oeil ! - Copyright ORBIFLY Décembre 2007 - Disclaimer

ORBIFLY MET'MAP TEAM :

Programmation & Développement : Alexandra Zaïnal
Conception & Développement : Baudouin d'Aumeries
Co-Programmation & Développement : Marc-Olivier Méhu
Soutien technique & logistique : Manuel Goepfert

Contact : metmap@orbifly.com




SOURCES & CREDITS :

   NOAA